Time,TemperatureF,DewpointF,PressureIn,WindDirection,WindDirectionDegrees,WindSpeedMPH,WindSpeedGustMPH,Humidity,HourlyPrecipIn,Conditions,Clouds,dailyrainin,SoftwareType,DateUTC
2013-10-01 00:09:00,40.3,31.6,29.88,NW,304,0.0,0.0,71,0.00,,,0.00,Wunderground v.1.15,2013-10-01 06:09:00,
2013-10-01 00:14:00,40.1,30.7,29.88,NW,304,0.0,0.0,69,0.00,,,0.00,Wunderground v.1.15,2013-10-01 06:14:00,
2013-10-01 00:19:00,40.0,30.6,29.88,NW,304,0.0,0.0,69,0.00,,,0.00,Wunderground v.1.15,2013-10-01 06:19:00,
2013-10-01 00:24:00,40.0,30.3,29.88,NW,304,0.0,0.0,68,0.00,,,0.00,Wunderground v.1.15,2013-10-01 06:24:00,
2013-10-01 00:29:00,39.8,31.2,29.88,NW,304,0.0,0.0,71,0.00,,,0.00,Wunderground v.1.15,2013-10-01 06:29:00,
2013-10-01 00:39:00,39.4,30.8,29.88,NW,304,0.0,0.0,71,0.00,,,0.00,Wunderground v.1.15,2013-10-01 06:39:00,
2013-10-01 00:49:00,38.9,31.0,29.88,NW,304,0.0,0.0,73,0.00,,,0.00,Wunderground v.1.15,2013-10-01 06:49:00,
2013-10-01 00:54:00,38.8,30.2,29.88,NW,304,0.0,0.0,71,0.00,,,0.00,Wunderground v.1.15,2013-10-01 06:54:00,
2013-10-01 00:59:00,38.9,30.3,29.88,NW,304,0.0,0.0,71,0.00,,,0.00,Wunderground v.1.15,2013-10-01 06:59:00,
2013-10-01 01:09:00,38.6,30.7,29.89,NW,304,0.0,0.0,73,0.00,,,0.00,Wunderground v.1.15,2013-10-01 07:09:00,
2013-10-01 01:19:00,38.3,30.4,29.89,NW,304,0.0,0.0,73,0.00,,,0.00,Wunderground v.1.15,2013-10-01 07:19:00,
2013-10-01 01:24:00,38.0,31.1,29.89,NW,304,0.0,0.0,76,0.00,,,0.00,Wunderground v.1.15,2013-10-01 07:24:00,
2013-10-01 01:29:00,37.9,30.4,29.89,NW,304,0.0,0.0,74,0.00,,,0.00,Wunderground v.1.15,2013-10-01 07:29:00,
2013-10-01 01:39:00,37.7,30.8,29.89,NW,304,0.0,0.0,76,0.00,,,0.00,Wunderground v.1.15,2013-10-01 07:39:00,
2013-10-01 01:44:00,37.6,30.4,29.89,NW,304,0.0,0.0,75,0.00,,,0.00,Wunderground v.1.15,2013-10-01 07:44:00,
2013-10-01 01:49:00,37.4,30.2,29.89,NW,304,0.0,0.0,75,0.00,,,0.00,Wunderground v.1.15,2013-10-01 07:49:00,
2013-10-01 01:54:00,37.3,30.4,29.89,NW,304,0.0,0.0,76,0.00,,,0.00,Wunderground v.1.15,2013-10-01 07:54:00,
2013-10-01 01:59:00,37.4,30.5,29.89,NW,304,0.0,0.0,76,0.00,,,0.00,Wunderground v.1.15,2013-10-01 07:59:00,
2013-10-01 02:09:00,37.5,30.9,29.89,NW,304,0.0,0.0,77,0.00,,,0.00,Wunderground v.1.15,2013-10-01 08:09:00,
2013-10-01 02:14:00,37.7,31.1,29.89,NW,304,0.0,0.0,77,0.00,,,0.00,Wunderground v.1.15,2013-10-01 08:14:00,
2013-10-01 02:24:00,37.7,30.8,29.90,NW,304,0.0,0.0,76,0.00,,,0.00,Wunderground v.1.15,2013-10-01 08:24:00,
2013-10-01 02:29:00,37.7,31.1,29.90,NW,304,0.0,0.0,77,0.00,,,0.00,Wunderground v.1.15,2013-10-01 08:29:00,
2013-10-01 02:34:00,37.8,30.9,29.90,NW,304,0.0,0.0,76,0.00,,,0.00,Wunderground v.1.15,2013-10-01 08:34:00,
2013-10-01 02:39:00,38.0,30.4,29.90,NW,304,0.0,0.0,74,0.00,,,0.00,Wunderground v.1.15,2013-10-01 08:39:00,
2013-10-01 02:44:00,38.1,30.5,29.90,NW,304,0.0,0.0,74,0.00,,,0.00,Wunderground v.1.15,2013-10-01 08:44:00,
2013-10-01 02:54:00,38.0,30.4,29.90,West,261,0.0,0.0,74,0.00,,,0.00,Wunderground v.1.15,2013-10-01 08:54:00,
2013-10-01 02:59:00,37.7,30.2,29.89,West,260,0.0,0.0,74,0.00,,,0.00,Wunderground v.1.15,2013-10-01 08:59:00,
2013-10-01 03:09:00,37.7,30.2,29.90,West,260,0.0,0.0,74,0.00,,,0.00,Wunderground v.1.15,2013-10-01 09:09:00,
2013-10-01 03:14:00,37.7,30.2,29.90,West,260,0.0,0.0,74,0.00,,,0.00,Wunderground v.1.15,2013-10-01 09:14:00,
2013-10-01 03:19:00,37.6,30.4,29.90,West,260,0.0,0.0,75,0.00,,,0.00,Wunderground v.1.15,2013-10-01 09:19:00,
2013-10-01 03:24:00,37.4,30.2,29.90,West,260,0.0,0.0,75,0.00,,,0.00,Wunderground v.1.15,2013-10-01 09:24:00,
2013-10-01 03:29:00,37.2,30.3,29.90,West,261,0.0,0.0,76,0.00,,,0.00,Wunderground v.1.15,2013-10-01 09:29:00,
2013-10-01 03:39:00,37.2,30.0,29.90,West,260,0.0,0.0,75,0.00,,,0.00,Wunderground v.1.15,2013-10-01 09:39:00,
2013-10-01 03:44:00,37.2,30.3,29.90,West,260,0.0,0.0,76,0.00,,,0.00,Wunderground v.1.15,2013-10-01 09:44:00,
2013-10-01 03:49:00,37.0,29.8,29.90,West,260,0.0,0.0,75,0.00,,,0.00,Wunderground v.1.15,2013-10-01 09:49:00,
2013-10-01 03:54:00,36.9,29.7,29.90,West,260,0.0,0.0,75,0.00,,,0.00,Wunderground v.1.15,2013-10-01 09:54:00,
2013-10-01 03:59:00,36.8,29.9,29.90,West,260,0.0,0.0,76,0.00,,,0.00,Wunderground v.1.15,2013-10-01 09:59:00,
2013-10-01 04:09:00,36.8,30.3,29.90,West,260,0.0,0.0,77,0.00,,,0.00,Wunderground v.1.15,2013-10-01 10:09:00,
2013-10-01 04:14:00,36.8,29.9,29.90,West,260,0.0,0.0,76,0.00,,,0.00,Wunderground v.1.15,2013-10-01 10:14:00,
2013-10-01 04:19:00,36.7,30.2,29.90,West,260,0.0,0.0,77,0.00,,,0.00,Wunderground v.1.15,2013-10-01 10:19:00,
2013-10-01 04:24:00,36.6,30.1,29.90,West,260,0.0,0.0,77,0.00,,,0.00,Wunderground v.1.15,2013-10-01 10:24:00,
2013-10-01 04:29:00,36.5,30.0,29.90,West,260,0.0,0.0,77,0.00,,,0.00,Wunderground v.1.15,2013-10-01 10:29:00,
2013-10-01 04:39:00,36.4,29.9,29.90,West,260,0.0,0.0,77,0.00,,,0.00,Wunderground v.1.15,2013-10-01 10:39:00,
2013-10-01 04:44:00,36.3,29.8,29.91,West,260,0.0,0.0,77,0.00,,,0.00,Wunderground v.1.15,2013-10-01 10:44:00,
2013-10-01 04:49:00,36.2,29.7,29.91,West,260,0.0,0.0,77,0.00,,,0.00,Wunderground v.1.15,2013-10-01 10:49:00,
2013-10-01 04:54:00,36.1,29.6,29.91,West,260,0.0,0.0,77,0.00,,,0.00,Wunderground v.1.15,2013-10-01 10:54:00,
2013-10-01 04:59:00,36.1,29.9,29.91,West,260,0.0,0.0,78,0.00,,,0.00,Wunderground v.1.15,2013-10-01 10:59:00,
2013-10-01 05:09:00,36.0,29.8,29.91,West,260,0.0,0.0,78,0.00,,,0.00,Wunderground v.1.15,2013-10-01 11:09:00,
2013-10-01 05:14:00,36.1,29.9,29.91,SW,215,0.0,0.0,78,0.00,,,0.00,Wunderground v.1.15,2013-10-01 11:14:00,
2013-10-01 05:24:00,36.1,29.9,29.91,SW,215,0.0,0.0,78,0.00,,,0.00,Wunderground v.1.15,2013-10-01 11:24:00,
2013-10-01 05:29:00,36.3,30.1,29.91,SW,215,0.0,0.0,78,0.00,,,0.00,Wunderground v.1.15,2013-10-01 11:29:00,
2013-10-01 05:34:00,36.2,30.0,29.91,SW,215,0.0,0.0,78,0.00,,,0.00,Wunderground v.1.15,2013-10-01 11:34:00,
2013-10-01 05:39:00,36.2,30.0,29.92,SW,215,0.0,0.0,78,0.00,,,0.00,Wunderground v.1.15,2013-10-01 11:39:00,
2013-10-01 05:44:00,36.3,30.1,29.91,SW,215,0.0,0.0,78,0.00,,,0.00,Wunderground v.1.15,2013-10-01 11:44:00,
2013-10-01 05:54:00,36.6,30.1,29.92,SW,215,0.0,0.0,77,0.00,,,0.00,Wunderground v.1.15,2013-10-01 11:54:00,
2013-10-01 06:00:00,36.7,30.5,29.92,SE,129,0.0,0.0,78,0.00,,,0.00,Wunderground v.1.15,2013-10-01 12:00:00,
2013-10-01 06:09:00,37.0,30.5,29.92,ESE,105,0.0,0.0,77,0.00,,,0.00,Wunderground v.1.15,2013-10-01 12:09:00,
2013-10-01 06:14:00,37.0,30.5,29.92,ESE,105,0.0,0.0,77,0.00,,,0.00,Wunderground v.1.15,2013-10-01 12:14:00,
2013-10-01 06:19:00,37.3,30.7,29.92,ENE,74,0.0,0.0,77,0.00,,,0.00,Wunderground v.1.15,2013-10-01 12:19:00,
2013-10-01 06:24:00,37.9,31.0,29.92,ESE,111,0.0,0.0,76,0.00,,,0.00,Wunderground v.1.15,2013-10-01 12:24:00,
2013-10-01 06:34:00,38.3,31.1,29.92,ENE,69,0.0,0.0,75,0.00,,,0.00,Wunderground v.1.15,2013-10-01 12:34:00,
2013-10-01 06:39:00,38.4,30.8,29.92,ESE,104,1.0,1.0,74,0.00,,,0.00,Wunderground v.1.15,2013-10-01 12:39:00,
2013-10-01 06:44:00,38.2,30.6,29.92,ESE,108,1.0,7.0,74,0.00,,,0.00,Wunderground v.1.15,2013-10-01 12:44:00,
2013-10-01 06:49:00,38.3,31.1,29.92,ESE,106,1.0,1.0,75,0.00,,,0.00,Wunderground v.1.15,2013-10-01 12:49:00,
2013-10-01 06:54:00,38.7,30.8,29.92,East,94,3.0,6.0,73,0.00,,,0.00,Wunderground v.1.15,2013-10-01 12:54:00,
2013-10-01 06:59:00,39.0,31.1,29.92,East,101,3.0,3.0,73,0.00,,,0.00,Wunderground v.1.15,2013-10-01 12:59:00,
2013-10-01 07:09:00,38.8,30.9,29.93,East,98,3.0,3.0,73,0.00,,,0.00,Wunderground v.1.15,2013-10-01 13:09:00,
2013-10-01 07:14:00,38.6,31.0,29.93,East,97,2.0,3.0,74,0.00,,,0.00,Wunderground v.1.15,2013-10-01 13:14:00,
2013-10-01 07:24:00,38.8,30.9,29.93,ESE,117,2.0,6.0,73,0.00,,,0.00,Wunderground v.1.15,2013-10-01 13:24:00,
2013-10-01 07:29:00,39.1,30.8,29.93,East,97,4.0,4.0,72,0.00,,,0.00,Wunderground v.1.15,2013-10-01 13:29:00,
2013-10-01 07:34:00,39.3,30.7,29.93,East,98,4.0,5.0,71,0.00,,,0.00,Wunderground v.1.15,2013-10-01 13:34:00,
2013-10-01 07:44:00,39.8,30.8,29.94,ESE,118,5.0,6.0,70,0.00,,,0.00,Wunderground v.1.15,2013-10-01 13:44:00,
2013-10-01 07:49:00,39.5,31.2,29.94,SE,134,3.0,3.0,72,0.00,,,0.00,Wunderground v.1.15,2013-10-01 13:49:00,
2013-10-01 07:54:00,38.7,31.5,29.94,East,86,1.0,3.0,75,0.00,,,0.00,Wunderground v.1.15,2013-10-01 13:54:00,
2013-10-01 07:59:00,38.2,31.3,29.93,East,100,0.0,0.0,76,0.00,,,0.00,Wunderground v.1.15,2013-10-01 13:59:00,
2013-10-01 08:09:00,38.8,31.9,29.93,East,98,1.0,1.0,76,0.00,,,0.00,Wunderground v.1.15,2013-10-01 14:09:00,
2013-10-01 08:14:00,39.1,31.5,29.93,East,101,1.0,5.0,74,0.00,,,0.00,Wunderground v.1.15,2013-10-01 14:14:00,
2013-10-01 08:19:00,39.7,31.8,29.93,East,98,4.0,5.0,73,0.00,,,0.00,Wunderground v.1.15,2013-10-01 14:19:00,
2013-10-01 08:24:00,40.3,32.0,29.93,East,96,5.0,5.0,72,0.00,,,0.00,Wunderground v.1.15,2013-10-01 14:24:00,
2013-10-01 08:29:00,40.7,32.4,29.93,East,101,4.0,4.0,72,0.00,,,0.00,Wunderground v.1.15,2013-10-01 14:29:00,
2013-10-01 08:39:00,40.7,33.1,29.92,East,86,0.0,3.0,74,0.00,,,0.00,Wunderground v.1.15,2013-10-01 14:39:00,
2013-10-01 08:44:00,41.7,33.7,29.92,East,83,1.0,3.0,73,0.00,,,0.00,Wunderground v.1.15,2013-10-01 14:44:00,
2013-10-01 08:49:00,42.9,34.1,29.92,East,89,1.0,1.0,71,0.00,,,0.00,Wunderground v.1.15,2013-10-01 14:49:00,
2013-10-01 08:59:00,44.5,34.6,29.92,ENE,64,0.0,0.0,68,0.00,,,0.00,Wunderground v.1.15,2013-10-01 14:59:00,
2013-10-01 09:09:00,46.3,36.3,29.92,East,83,0.0,0.0,68,0.00,,,0.00,Wunderground v.1.15,2013-10-01 15:09:00,
2013-10-01 09:14:00,47.0,35.8,29.92,East,83,0.0,0.0,65,0.00,,,0.00,Wunderground v.1.15,2013-10-01 15:14:00,
2013-10-01 09:19:00,48.1,37.3,29.92,East,83,0.0,0.0,66,0.00,,,0.00,Wunderground v.1.15,2013-10-01 15:19:00,
2013-10-01 09:24:00,49.4,36.1,29.92,East,83,0.0,0.0,60,0.00,,,0.00,Wunderground v.1.15,2013-10-01 15:24:00,
2013-10-01 09:34:00,50.1,36.3,29.92,East,83,0.0,0.0,59,0.00,,,0.00,Wunderground v.1.15,2013-10-01 15:34:00,
2013-10-01 09:39:00,50.5,38.4,29.91,East,83,0.0,0.0,63,0.00,,,0.00,Wunderground v.1.15,2013-10-01 15:39:00,
2013-10-01 09:49:00,52.0,39.0,29.91,East,83,0.0,0.0,61,0.00,,,0.00,Wunderground v.1.15,2013-10-01 15:49:00,
2013-10-01 09:54:00,53.2,37.9,29.91,East,83,0.0,0.0,56,0.00,,,0.00,Wunderground v.1.15,2013-10-01 15:54:00,
2013-10-01 10:00:00,54.9,36.6,29.91,East,83,0.0,0.0,50,0.00,,,0.00,Wunderground v.1.15,2013-10-01 16:00:00,
2013-10-01 10:09:00,59.1,34.8,29.91,NW,311,0.0,0.0,40,0.00,,,0.00,Wunderground v.1.15,2013-10-01 16:09:00,
2013-10-01 10:19:00,61.6,32.9,29.91,NW,321,0.0,1.0,34,0.00,,,0.00,Wunderground v.1.15,2013-10-01 16:19:00,
2013-10-01 10:24:00,62.0,34.0,29.91,NNW,338,1.0,1.0,35,0.00,,,0.00,Wunderground v.1.15,2013-10-01 16:24:00,
2013-10-01 10:29:00,62.5,33.0,29.91,NNW,336,2.0,2.0,33,0.00,,,0.00,Wunderground v.1.15,2013-10-01 16:29:00,
2013-10-01 10:39:00,63.1,34.3,29.91,NNW,329,2.0,2.0,34,0.00,,,0.00,Wunderground v.1.15,2013-10-01 16:39:00,
2013-10-01 10:44:00,62.7,33.9,29.91,NNW,338,3.0,3.0,34,0.00,,,0.00,Wunderground v.1.15,2013-10-01 16:44:00,
2013-10-01 10:49:00,63.6,34.7,29.91,NNW,329,2.0,2.0,34,0.00,,,0.00,Wunderground v.1.15,2013-10-01 16:49:00,
2013-10-01 10:54:00,63.6,33.9,29.90,NNW,329,1.0,2.0,33,0.00,,,0.00,Wunderground v.1.15,2013-10-01 16:54:00,
2013-10-01 10:59:00,64.2,36.0,29.90,WNW,295,1.0,3.0,35,0.00,,,0.00,Wunderground v.1.15,2013-10-01 16:59:00,
2013-10-01 11:04:00,64.2,36.7,29.90,NW,326,1.0,3.0,36,0.00,,,0.00,Wunderground v.1.15,2013-10-01 17:04:00,
2013-10-01 11:14:00,65.0,35.2,29.90,North,360,1.0,5.0,33,0.00,,,0.00,Wunderground v.1.15,2013-10-01 17:14:00,
2013-10-01 11:19:00,65.2,35.4,29.89,NNW,329,1.0,4.0,33,0.00,,,0.00,Wunderground v.1.15,2013-10-01 17:19:00,
2013-10-01 11:29:00,65.1,34.5,29.89,NNW,338,3.0,3.0,32,0.00,,,0.00,Wunderground v.1.15,2013-10-01 17:29:00,
2013-10-01 11:34:00,65.6,34.1,29.88,NNW,335,3.0,3.0,31,0.00,,,0.00,Wunderground v.1.15,2013-10-01 17:34:00,
2013-10-01 11:44:00,66.2,35.4,29.88,NNW,330,2.0,8.0,32,0.00,,,0.00,Wunderground v.1.15,2013-10-01 17:44:00,
2013-10-01 11:49:00,66.3,34.7,29.88,NNW,335,2.0,2.0,31,0.00,,,0.00,Wunderground v.1.15,2013-10-01 17:49:00,
2013-10-01 11:54:00,66.4,34.0,29.88,WNW,293,2.0,3.0,30,0.00,,,0.00,Wunderground v.1.15,2013-10-01 17:54:00,
2013-10-01 11:59:00,66.8,33.5,29.88,NNW,342,2.0,2.0,29,0.00,,,0.00,Wunderground v.1.15,2013-10-01 17:59:00,
2013-10-01 12:09:00,66.1,34.6,29.88,NW,311,3.0,3.0,31,0.00,,,0.00,Wunderground v.1.15,2013-10-01 18:09:00,
2013-10-01 12:14:00,66.4,34.8,29.88,NNW,336,3.0,5.0,31,0.00,,,0.00,Wunderground v.1.15,2013-10-01 18:14:00,
2013-10-01 12:19:00,66.8,34.3,29.87,NNW,336,3.0,3.0,30,0.00,,,0.00,Wunderground v.1.15,2013-10-01 18:19:00,
2013-10-01 12:24:00,67.3,33.9,29.87,NNW,340,2.0,3.0,29,0.00,,,0.00,Wunderground v.1.15,2013-10-01 18:24:00,
2013-10-01 12:29:00,67.5,36.6,29.86,NNW,336,1.0,1.0,32,0.00,,,0.00,Wunderground v.1.15,2013-10-01 18:29:00,
2013-10-01 12:44:00,67.1,33.8,29.87,NNW,333,3.0,4.0,29,0.00,,,0.00,Wunderground v.1.15,2013-10-01 18:44:00,
2013-10-01 12:49:00,67.0,33.7,29.86,NNW,335,4.0,4.0,29,0.00,,,0.00,Wunderground v.1.15,2013-10-01 18:49:00,
2013-10-01 12:59:00,68.3,37.3,29.86,NNW,345,2.0,2.0,32,0.00,,,0.00,Wunderground v.1.15,2013-10-01 18:59:00,
2013-10-01 13:09:00,67.5,33.2,29.86,NNW,328,3.0,3.0,28,0.00,,,0.00,Wunderground v.1.15,2013-10-01 19:09:00,
2013-10-01 13:19:00,67.9,34.4,29.86,NNW,341,3.0,5.0,29,0.00,,,0.00,Wunderground v.1.15,2013-10-01 19:19:00,
2013-10-01 13:24:00,67.5,34.1,29.85,NNW,338,4.0,8.0,29,0.00,,,0.00,Wunderground v.1.15,2013-10-01 19:24:00,
2013-10-01 13:29:00,67.1,34.6,29.85,North,355,4.0,4.0,30,0.00,,,0.00,Wunderground v.1.15,2013-10-01 19:29:00,
2013-10-01 13:39:00,67.4,35.7,29.85,NW,326,3.0,3.0,31,0.00,,,0.00,Wunderground v.1.15,2013-10-01 19:39:00,
2013-10-01 13:44:00,68.0,33.7,29.85,NNW,348,3.0,5.0,28,0.00,,,0.00,Wunderground v.1.15,2013-10-01 19:44:00,
2013-10-01 13:54:00,67.0,33.7,29.84,NNW,345,2.0,4.0,29,0.00,,,0.00,Wunderground v.1.15,2013-10-01 19:54:00,
2013-10-01 13:59:00,67.0,33.7,29.84,NNW,336,3.0,3.0,29,0.00,,,0.00,Wunderground v.1.15,2013-10-01 19:59:00,
2013-10-01 14:09:00,67.0,33.7,29.84,NW,324,4.0,4.0,29,0.00,,,0.00,Wunderground v.1.15,2013-10-01 20:09:00,
2013-10-01 14:14:00,67.2,35.5,29.84,NNW,346,3.0,4.0,31,0.00,,,0.00,Wunderground v.1.15,2013-10-01 20:14:00,
2013-10-01 14:19:00,68.1,34.6,29.84,NNW,329,2.0,3.0,29,0.00,,,0.00,Wunderground v.1.15,2013-10-01 20:19:00,
2013-10-01 14:29:00,68.1,33.7,29.84,North,355,4.0,4.0,28,0.00,,,0.00,Wunderground v.1.15,2013-10-01 20:29:00,
2013-10-01 14:39:00,67.5,34.1,29.84,NNW,333,4.0,4.0,29,0.00,,,0.00,Wunderground v.1.15,2013-10-01 20:39:00,
2013-10-01 14:44:00,67.4,33.1,29.84,NNW,337,3.0,4.0,28,0.00,,,0.00,Wunderground v.1.15,2013-10-01 20:44:00,
2013-10-01 14:49:00,68.0,34.5,29.84,WNW,295,2.0,5.0,29,0.00,,,0.00,Wunderground v.1.15,2013-10-01 20:49:00,
2013-10-01 14:54:00,68.0,33.7,29.84,NNW,340,3.0,5.0,28,0.00,,,0.00,Wunderground v.1.15,2013-10-01 20:54:00,
2013-10-01 15:00:00,67.5,33.2,29.84,NNW,337,2.0,2.0,28,0.00,,,0.00,Wunderground v.1.15,2013-10-01 21:00:00,
2013-10-01 15:09:00,67.6,33.3,29.83,NW,321,1.0,2.0,28,0.00,,,0.00,Wunderground v.1.15,2013-10-01 21:09:00,
2013-10-01 15:14:00,68.4,34.0,29.84,WNW,300,2.0,4.0,28,0.00,,,0.00,Wunderground v.1.15,2013-10-01 21:14:00,
2013-10-01 15:24:00,68.5,33.2,29.83,NNW,335,3.0,5.0,27,0.00,,,0.00,Wunderground v.1.15,2013-10-01 21:24:00,
2013-10-01 15:29:00,68.7,34.3,29.83,NW,317,2.0,2.0,28,0.00,,,0.00,Wunderground v.1.15,2013-10-01 21:29:00,
2013-10-01 15:34:00,68.8,33.4,29.83,NNW,331,2.0,2.0,27,0.00,,,0.00,Wunderground v.1.15,2013-10-01 21:34:00,
2013-10-01 15:44:00,68.5,35.0,29.83,NNW,330,1.0,2.0,29,0.00,,,0.00,Wunderground v.1.15,2013-10-01 21:44:00,
2013-10-01 15:49:00,67.9,34.4,29.83,NNW,327,1.0,2.0,29,0.00,,,0.00,Wunderground v.1.15,2013-10-01 21:49:00,
2013-10-01 15:59:00,68.1,36.3,29.83,West,263,1.0,1.0,31,0.00,,,0.00,Wunderground v.1.15,2013-10-01 21:59:00,
2013-10-01 16:09:00,68.3,33.9,29.83,NNW,333,2.0,2.0,28,0.00,,,0.00,Wunderground v.1.15,2013-10-01 22:09:00,
2013-10-01 16:19:00,67.5,37.4,29.83,NW,306,1.0,1.0,33,0.00,,,0.00,Wunderground v.1.15,2013-10-01 22:19:00,
2013-10-01 16:24:00,67.0,35.3,29.82,WNW,291,1.0,1.0,31,0.00,,,0.00,Wunderground v.1.15,2013-10-01 22:24:00,
2013-10-01 16:29:00,66.6,39.5,29.82,SW,223,0.0,0.0,37,0.00,,,0.00,Wunderground v.1.15,2013-10-01 22:29:00,
2013-10-01 16:34:00,66.0,39.0,29.82,SW,231,0.0,0.0,37,0.00,,,0.00,Wunderground v.1.15,2013-10-01 22:34:00,
2013-10-01 16:39:00,66.0,37.5,29.83,WSW,248,0.0,0.0,35,0.00,,,0.00,Wunderground v.1.15,2013-10-01 22:39:00,
2013-10-01 16:49:00,67.2,36.3,29.83,West,275,1.0,1.0,32,0.00,,,0.00,Wunderground v.1.15,2013-10-01 22:49:00,
2013-10-01 16:54:00,67.2,33.8,29.83,NNW,332,1.0,3.0,29,0.00,,,0.00,Wunderground v.1.15,2013-10-01 22:54:00,
2013-10-01 16:59:00,67.0,37.7,29.83,WSW,239,1.0,1.0,34,0.00,,,0.00,Wunderground v.1.15,2013-10-01 22:59:00,
2013-10-01 17:09:00,65.3,38.3,29.82,WSW,253,0.0,0.0,37,0.00,,,0.00,Wunderground v.1.15,2013-10-01 23:09:00,
2013-10-01 17:14:00,64.6,39.7,29.83,WSW,253,0.0,0.0,40,0.00,,,0.00,Wunderground v.1.15,2013-10-01 23:14:00,
2013-10-01 17:19:00,64.3,38.1,29.83,WSW,253,0.0,0.0,38,0.00,,,0.00,Wunderground v.1.15,2013-10-01 23:19:00,
2013-10-01 17:24:00,64.0,37.2,29.83,SW,227,0.0,0.0,37,0.00,,,0.00,Wunderground v.1.15,2013-10-01 23:24:00,
2013-10-01 17:29:00,63.6,40.7,29.83,SW,227,0.0,0.0,43,0.00,,,0.00,Wunderground v.1.15,2013-10-01 23:29:00,
2013-10-01 17:34:00,63.2,40.9,29.83,SW,227,0.0,0.0,44,0.00,,,0.00,Wunderground v.1.15,2013-10-01 23:34:00,
2013-10-01 17:39:00,62.9,38.8,29.83,SW,227,0.0,1.0,41,0.00,,,0.00,Wunderground v.1.15,2013-10-01 23:39:00,
2013-10-01 17:49:00,62.1,39.9,29.83,SW,227,0.0,0.0,44,0.00,,,0.00,Wunderground v.1.15,2013-10-01 23:49:00,
2013-10-01 17:54:00,61.8,41.9,29.83,SW,227,0.0,0.0,48,0.00,,,0.00,Wunderground v.1.15,2013-10-01 23:54:00,
2013-10-01 17:59:00,61.0,41.7,29.83,SW,227,0.0,0.0,49,0.00,,,0.00,Wunderground v.1.15,2013-10-01 23:59:00,
2013-10-01 18:09:00,60.6,41.3,29.83,SW,227,0.0,0.0,49,0.00,,,0.00,Wunderground v.1.15,2013-10-02 00:09:00,
2013-10-01 18:14:00,60.3,41.0,29.83,SW,227,0.0,0.0,49,0.00,,,0.00,Wunderground v.1.15,2013-10-02 00:14:00,
2013-10-01 18:19:00,59.9,41.7,29.83,SW,227,0.0,0.0,51,0.00,,,0.00,Wunderground v.1.15,2013-10-02 00:19:00,
2013-10-01 18:24:00,59.1,42.5,29.83,SW,227,0.0,0.0,54,0.00,,,0.00,Wunderground v.1.15,2013-10-02 00:24:00,
2013-10-01 18:29:00,59.0,43.3,29.83,SW,227,0.0,0.0,56,0.00,,,0.00,Wunderground v.1.15,2013-10-02 00:29:00,
2013-10-01 18:34:00,58.3,43.1,29.83,SW,227,0.0,0.0,57,0.00,,,0.00,Wunderground v.1.15,2013-10-02 00:34:00,
2013-10-01 18:44:00,57.4,43.2,29.83,SW,227,0.0,0.0,59,0.00,,,0.00,Wunderground v.1.15,2013-10-02 00:44:00,
2013-10-01 18:49:00,56.9,42.3,29.84,SW,227,0.0,0.0,58,0.00,,,0.00,Wunderground v.1.15,2013-10-02 00:49:00,
2013-10-01 18:59:00,56.2,42.1,29.84,SW,227,0.0,0.0,59,0.00,,,0.00,Wunderground v.1.15,2013-10-02 00:59:00,
2013-10-01 19:04:00,55.9,42.6,29.84,SW,227,0.0,0.0,61,0.00,,,0.00,Wunderground v.1.15,2013-10-02 01:04:00,
2013-10-01 19:09:00,55.2,42.4,29.84,SW,227,0.0,0.0,62,0.00,,,0.00,Wunderground v.1.15,2013-10-02 01:09:00,
2013-10-01 19:19:00,54.6,42.7,29.84,SW,227,0.0,0.0,64,0.00,,,0.00,Wunderground v.1.15,2013-10-02 01:19:00,
2013-10-01 19:24:00,54.0,43.3,29.84,SW,227,0.0,0.0,67,0.00,,,0.00,Wunderground v.1.15,2013-10-02 01:24:00,
2013-10-01 19:29:00,53.6,42.9,29.84,SW,227,0.0,0.0,67,0.00,,,0.00,Wunderground v.1.15,2013-10-02 01:29:00,
2013-10-01 19:39:00,54.0,42.1,29.84,SW,227,0.0,0.0,64,0.00,,,0.00,Wunderground v.1.15,2013-10-02 01:39:00,
2013-10-01 19:44:00,54.1,41.8,29.85,SW,227,0.0,0.0,63,0.00,,,0.00,Wunderground v.1.15,2013-10-02 01:44:00,
2013-10-01 19:54:00,53.9,41.6,29.85,SW,227,0.0,0.0,63,0.00,,,0.00,Wunderground v.1.15,2013-10-02 01:54:00,
2013-10-01 19:59:00,53.4,41.9,29.85,SW,227,0.0,0.0,65,0.00,,,0.00,Wunderground v.1.15,2013-10-02 01:59:00,
2013-10-01 20:09:00,53.2,42.1,29.85,SW,227,0.0,0.0,66,0.00,,,0.00,Wunderground v.1.15,2013-10-02 02:09:00,
2013-10-01 20:14:00,52.9,41.4,29.85,SW,227,0.0,0.0,65,0.00,,,0.00,Wunderground v.1.15,2013-10-02 02:14:00,
2013-10-01 20:19:00,52.6,41.6,29.85,SW,227,0.0,0.0,66,0.00,,,0.00,Wunderground v.1.15,2013-10-02 02:19:00,
2013-10-01 20:29:00,52.0,41.4,29.86,SW,227,0.0,0.0,67,0.00,,,0.00,Wunderground v.1.15,2013-10-02 02:29:00,
2013-10-01 20:39:00,51.6,40.6,29.86,ESE,113,0.0,3.0,66,0.00,,,0.00,Wunderground v.1.15,2013-10-02 02:39:00,
2013-10-01 20:44:00,51.8,40.4,29.86,East,82,0.0,3.0,65,0.00,,,0.00,Wunderground v.1.15,2013-10-02 02:44:00,
2013-10-01 20:49:00,51.5,40.1,29.86,East,82,0.0,0.0,65,0.00,,,0.00,Wunderground v.1.15,2013-10-02 02:49:00,
2013-10-01 20:54:00,51.2,40.2,29.86,East,83,0.0,0.0,66,0.00,,,0.00,Wunderground v.1.15,2013-10-02 02:54:00,
2013-10-01 21:00:00,50.9,39.5,29.87,East,79,0.0,0.0,65,0.00,,,0.00,Wunderground v.1.15,2013-10-02 03:00:00,
2013-10-01 21:09:00,50.3,39.8,29.88,East,79,0.0,0.0,67,0.00,,,0.00,Wunderground v.1.15,2013-10-02 03:09:00,
2013-10-01 21:14:00,50.2,38.9,29.88,East,79,0.0,0.0,65,0.00,,,0.00,Wunderground v.1.15,2013-10-02 03:14:00,
2013-10-01 21:19:00,49.8,40.0,29.89,East,79,0.0,0.0,69,0.00,,,0.00,Wunderground v.1.15,2013-10-02 03:19:00,
2013-10-01 21:24:00,49.4,38.5,29.89,East,79,0.0,0.0,66,0.00,,,0.00,Wunderground v.1.15,2013-10-02 03:24:00,
2013-10-01 21:29:00,48.8,40.2,29.88,East,79,0.0,0.0,72,0.00,,,0.00,Wunderground v.1.15,2013-10-02 03:29:00,
2013-10-01 21:39:00,48.3,38.6,29.88,East,83,0.0,5.0,69,0.00,,,0.00,Wunderground v.1.15,2013-10-02 03:39:00,
2013-10-01 21:44:00,48.6,38.5,29.88,East,98,2.0,5.0,68,0.00,,,0.00,Wunderground v.1.15,2013-10-02 03:44:00,
2013-10-01 21:49:00,48.3,38.2,29.88,East,101,3.0,5.0,68,0.00,,,0.00,Wunderground v.1.15,2013-10-02 03:49:00,
2013-10-01 21:54:00,48.5,38.0,29.88,ESE,102,3.0,5.0,67,0.00,,,0.00,Wunderground v.1.15,2013-10-02 03:54:00,
2013-10-01 22:00:00,48.8,38.3,29.89,ESE,108,4.0,4.0,67,0.00,,,0.00,Wunderground v.1.15,2013-10-02 04:00:00,
2013-10-01 22:04:00,48.7,37.8,29.89,East,85,2.0,4.0,66,0.00,,,0.00,Wunderground v.1.15,2013-10-02 04:04:00,
2013-10-01 22:09:00,48.9,37.3,29.89,East,82,1.0,1.0,64,0.00,,,0.00,Wunderground v.1.15,2013-10-02 04:09:00,
2013-10-01 22:19:00,49.2,37.5,29.89,East,87,3.0,3.0,64,0.00,,,0.00,Wunderground v.1.15,2013-10-02 04:19:00,
2013-10-01 22:24:00,48.3,37.8,29.89,ESE,102,2.0,3.0,67,0.00,,,0.00,Wunderground v.1.15,2013-10-02 04:24:00,
2013-10-01 22:29:00,47.8,37.4,29.89,ESE,106,1.0,1.0,67,0.00,,,0.00,Wunderground v.1.15,2013-10-02 04:29:00,
2013-10-01 22:39:00,47.0,37.0,29.90,ESE,109,2.0,4.0,68,0.00,,,0.00,Wunderground v.1.15,2013-10-02 04:39:00,
2013-10-01 22:44:00,47.1,37.1,29.89,East,88,3.0,4.0,68,0.00,,,0.00,Wunderground v.1.15,2013-10-02 04:44:00,
2013-10-01 22:49:00,46.7,36.7,29.90,East,90,3.0,6.0,68,0.00,,,0.00,Wunderground v.1.15,2013-10-02 04:49:00,
2013-10-01 22:54:00,46.8,36.8,29.89,East,91,5.0,6.0,68,0.00,,,0.00,Wunderground v.1.15,2013-10-02 04:54:00,
2013-10-01 23:00:00,46.9,36.9,29.89,East,101,6.0,6.0,68,0.00,,,0.00,Wunderground v.1.15,2013-10-02 05:00:00,
2013-10-01 23:09:00,46.1,36.5,29.90,ESE,113,3.0,4.0,69,0.00,,,0.00,Wunderground v.1.15,2013-10-02 05:09:00,
2013-10-01 23:14:00,46.1,36.1,29.90,ESE,114,3.0,4.0,68,0.00,,,0.00,Wunderground v.1.15,2013-10-02 05:14:00,
2013-10-01 23:19:00,45.9,36.7,29.90,East,87,4.0,5.0,70,0.00,,,0.00,Wunderground v.1.15,2013-10-02 05:19:00,
2013-10-01 23:29:00,45.3,36.1,29.89,ESE,108,2.0,4.0,70,0.00,,,0.00,Wunderground v.1.15,2013-10-02 05:29:00,
2013-10-01 23:39:00,45.2,35.6,29.89,East,98,4.0,6.0,69,0.00,,,0.00,Wunderground v.1.15,2013-10-02 05:39:00,
2013-10-01 23:44:00,45.0,35.4,29.89,East,85,4.0,6.0,69,0.00,,,0.00,Wunderground v.1.15,2013-10-02 05:44:00,
2013-10-01 23:49:00,44.9,35.7,29.89,ESE,116,4.0,7.0,70,0.00,,,0.00,Wunderground v.1.15,2013-10-02 05:49:00,
2013-10-01 23:54:00,44.7,35.5,29.89,East,94,4.0,7.0,70,0.00,,,0.00,Wunderground v.1.15,2013-10-02 05:54:00,